Last Month

Pierce College

Hourly Data | America/Los_Angeles
as of 2/7/23 8:39 PM PST
Date & Time Temp Max (°F) Temp Min (°F) RH (%) Dew Pt (°F) Latest Rain (In) Soil Temp (°F) Soil Moist (%) Wind Spd (mph) Wind Dir (°) Wind Gust (mph) Leaf Wet Raw (mV) Net Radiation (W/m²) Evap Pan Max Wind (mph) Evap Pan H2O Max Temp (°F) Evap Pan Level (In)
1/31/23 - 2300 52.5 51.1 13 3.1 0.00 53.7 47.5 2.1 NNE | 22 8.1 264 -86 3.1 60.7 8.2
1/31/23 - 2200 52.8 51.6 14 4.3 0.00 53.7 47.5 2.8 N | 6 9.6 264 -88 3.5 62.7 8.2
1/31/23 - 2100 52.9 52.1 14 4.4 0.00 53.9 47.5 1.4 N | 349 6.2 264 -89 4.0 66.4 8.2
1/31/23 - 2000 53.3 51.9 15 5.6 0.00 53.8 47.6 1.3 N | 354 5.8 264 -87 2.6 69.6 8.3
1/31/23 - 1900 55.7 53.0 13 5.1 0.00 53.6 47.6 1.7 N | 359 9.6 264 -90 2.2 75.4 8.3
1/31/23 - 1800 58.6 55.4 12 3.7 0.00 53.4 47.6 2.3 N | 3 6.5 263 -91 2.2 84.9 8.3
1/31/23 - 1700 61.1 57.9 9 0.5 0.00 53.4 47.6 3.5 N | 9 11.5 263 -28 4.3 89.5 8.3
1/31/23 - 1600 61.4 60.7 9 1.9 0.00 53.0 47.6 4.7 NNE | 16 11.3 263 127 4.4 89.9 8.3
1/31/23 - 1500 61.0 60.2 9 2.2 0.00 52.7 47.5 6.7 N | 7 16.1 262 262 6.9 85.7 8.3
1/31/23 - 1400 61.3 59.1 11 5.3 0.00 52.7 47.6 4.7 N | 10 14.9 262 352 6.3 82.6 8.3
1/31/23 - 1300 60.2 59.0 11 5.1 0.00 52.3 47.5 5.4 N | 6 15.5 262 406 5.9 77.1 8.3
1/31/23 - 1200 59.8 57.1 13 7.3 0.00 52.6 47.5 4.1 N | 2 12.8 263 405 6.8 69.4 8.3
1/31/23 - 1100 58.7 56.0 13 6.4 0.00 52.8 47.6 4.6 N | 6 14.3 263 347 7.9 62.4 8.4
1/31/23 - 1000 56.5 54.3 14 6.3 0.00 52.7 47.6 4.5 NNE | 14 12.8 263 248 4.5 56.8 8.4
1/31/23 - 0900 54.3 51.2 16 7.8 0.00 53.0 47.7 4.1 N | 3 16.2 264 117 4.6 54.2 8.4
1/31/23 - 0800 51.3 48.4 18 7.9 0.00 53.1 47.8 3.6 N | 5 16.2 265 -51 7.5 53.2 8.4
1/31/23 - 0700 49.6 48.3 20 10.1 0.00 53.3 47.8 4.1 N | 7 15.2 266 -78 6.5 53.8 8.4
1/31/23 - 0600 49.4 48.6 22 12.2 0.00 53.6 47.9 4.2 N | 8 11.9 266 -77 5.5 54.1 8.4
1/31/23 - 0500 49.1 48.5 25 14.2 0.00 53.6 47.9 4.6 N | 5 15.2 266 -76 4.5 55.0 8.4
1/31/23 - 0400 49.3 48.5 27 16.6 0.00 53.9 48.1 4.0 N | 8 12.9 267 -75 4.9 55.7 8.4
1/31/23 - 0300 49.0 48.2 30 18.8 0.00 54.2 48.1 2.9 N | 9 10.6 267 -74 5.2 55.9 8.4
1/31/23 - 0200 49.5 48.3 31 19.5 0.00 54.2 48.2 3.3 N | 11 10.9 268 -74 3.9 57.5 8.4
1/31/23 - 0100 49.7 49.0 32 20.4 0.00 54.4 48.3 4.3 NNE | 12 12.3 268 -74 4.4 58.4 8.4
1/31/23 - 0000 50.0 49.1 33 21.8 0.00 54.6 48.3 3.6 N | 7 13.4 268 -73 5.4 59.2 8.4
1/30/23 - 2300 50.3 49.3 35 23.5 0.00 54.8 48.4 3.7 N | 6 11.0 268 -72 4.0 60.4 8.4
1/30/23 - 2200 50.4 42.0 52 28.8 0.00 55.0 48.4 2.3 NNE | 17 10.9 269 -68 5.4 61.2 8.4
1/30/23 - 2100 50.8 42.3 61 33.0 0.00 55.0 48.5 0.4 S | 184 2.5 273 -65 1.6 63.1 8.4
1/30/23 - 2000 51.1 44.8 53 31.5 0.00 55.0 48.5 1.1 NNE | 22 6.7 270 -67 2.9 66.7 8.4
1/30/23 - 1900 48.6 44.8 73 38.4 0.00 54.8 48.6 0.8 SSE | 165 2.2 273 -65 1.2 71.3 8.4
1/30/23 - 1800 51.6 48.3 68 40.0 0.00 55.0 48.6 0.8 SSW | 194 4.2 272 -38 2.3 73.6 8.4
1/30/23 - 1700 52.7 51.5 60 38.8 0.00 54.9 48.6 1.5 S | 177 3.6 270 -7 1.9 75.0 8.4
1/30/23 - 1600 55.6 52.2 58 39.1 0.00 54.7 48.5 1.1 ENE | 70 4.2 275 20 2.1 76.7 8.4
1/30/23 - 1500 56.2 55.6 49 36.8 0.01 54.5 48.5 1.6 ENE | 57 6.8 306 68 2.3 77.8 8.4
1/30/23 - 1400 56.3 54.6 48 36.1 0.00 54.5 48.5 2.5 NNE | 20 8.7 268 125 3.9 77.8 8.4
1/30/23 - 1300 57.3 54.4 50 37.3 0.00 54.2 48.5 2.2 N | 10 8.8 269 185 4.0 76.2 8.4
1/30/23 - 1200 56.3 53.3 56 39.2 0.00 54.3 48.4 1.8 NNE | 21 6.3 269 320 2.8 70.6 8.4
1/30/23 - 1100 53.5 49.7 69 41.3 0.00 54.2 48.4 1.3 NNE | 28 4.1 270 241 1.5 65.0 8.4
1/30/23 - 1000 50.0 46.8 80 42.4 0.00 54.4 48.4 1.1 ENE | 68 3.8 275 154 3.1 62.3 8.4
1/30/23 - 0900 47.0 46.1 88 43.2 0.00 54.6 48.3 1.1 NE | 53 3.0 320 110 2.3 59.9 8.4
1/30/23 - 0800 46.2 44.3 93 42.8 0.00 54.3 48.2 0.6 NE | 50 2.5 378 30 0.0 59.2 8.4
1/30/23 - 0700 45.2 44.4 92 42.8 0.00 54.6 48.2 0.5 NE | 42 2.1 422 -4 0.0 59.9 8.4
1/30/23 - 0600 45.0 44.2 92 42.4 0.07 54.7 48.0 1.0 ENE | 78 4.5 455 -4 3.0 60.0 8.4
1/30/23 - 0500 44.9 44.1 92 42.3 0.00 54.8 47.7 1.3 ENE | 60 3.8 495 -5 3.0 59.7 8.4
1/30/23 - 0400 44.9 44.4 92 42.6 0.00 55.3 47.7 1.1 ENE | 69 4.4 383 -5 2.3 60.2 8.4
1/30/23 - 0300 45.6 44.5 93 43.1 0.01 55.4 47.7 1.6 ENE | 65 4.6 410 -4 3.9 61.6 8.4
1/30/23 - 0200 45.5 45.0 92 43.1 0.07 55.4 47.6 1.0 ENE | 62 3.3 438 -5 1.8 61.6 8.4
1/30/23 - 0100 45.9 45.2 92 43.4 0.00 55.4 47.1 1.0 ENE | 57 3.6 451 -4 1.8 62.7 8.3
1/30/23 - 0000 46.0 45.3 91 43.1 0.01 55.5 47.2 0.5 NE | 49 2.5 433 -5 0.3 63.7 8.3
1/29/23 - 2300 46.1 45.5 90 43.1 0.03 55.5 47.1 0.3 ENE | 75 2.3 500 -5 1.8 65.3 8.3
1/29/23 - 2200 46.7 45.8 87 42.7 0.08 55.4 46.9 0.1 NE | 55 1.6 507 -6 0.0 66.5 8.2
1/29/23 - 2100 47.4 46.5 81 41.4 0.03 55.4 46.6 0.4 SW | 217 2.3 482 -7 1.4 68.1 8.2
1/29/23 - 2000 48.0 47.3 71 38.5 0.00 55.2 46.7 1.2 SSW | 192 4.0 303 -22 2.7 71.0 8.2
1/29/23 - 1900 48.7 47.7 70 38.8 0.00 55.5 46.6 2.7 SSE | 166 6.4 270 -23 4.7 74.0 8.2
1/29/23 - 1800 49.8 48.3 68 38.7 0.00 55.4 46.7 2.3 S | 176 5.4 270 -30 3.6 78.8 8.2
1/29/23 - 1700 52.8 49.7 58 37.0 0.00 55.2 46.7 3.5 SSW | 199 7.7 269 4 5.3 84.5 8.2
1/29/23 - 1600 55.4 52.2 54 37.9 0.00 55.0 46.6 4.4 SSW | 198 10.4 268 142 8.2 84.8 8.2
1/29/23 - 1500 55.4 54.3 54 38.4 0.00 55.0 46.6 7.0 SW | 226 13.4 268 288 8.7 83.1 8.2
1/29/23 - 1400 54.9 52.1 59 39.1 0.00 54.8 46.6 6.7 SW | 226 13.4 268 219 8.3 80.4 8.2
1/29/23 - 1300 54.8 51.6 66 42.1 0.00 55.0 46.6 6.2 WSW | 239 12.5 270 262 8.3 76.4 8.2
1/29/23 - 1200 54.2 51.0 71 43.0 0.00 54.6 46.6 5.2 SSW | 209 9.6 270 86 6.8 72.8 8.2
1/29/23 - 1100 55.7 53.5 62 41.7 0.00 54.6 46.6 4.0 SSE | 161 10.6 270 154 7.1 71.0 8.2
1/29/23 - 1000 55.2 52.1 69 43.3 0.00 54.7 46.6 1.8 E | 101 6.3 269 151 3.5 66.8 8.2
1/29/23 - 0900 52.3 49.9 74 43.3 0.00 54.7 46.6 0.6 ESE | 119 3.1 271 56 1.4 63.8 8.2
1/29/23 - 0800 50.0 48.4 80 43.2 0.00 54.8 46.6 0.2 E | 92 1.6 272 5 0.0 63.4 8.2
1/29/23 - 0700 48.8 47.8 81 42.7 0.00 55.0 46.6 0.4 WSW | 245 2.3 272 -12 0.0 63.2 8.2
1/29/23 - 0600 49.6 48.0 79 42.5 0.00 55.0 46.6 0.6 S | 183 2.3 273 -18 1.1 63.8 8.2
1/29/23 - 0500 49.1 47.4 81 42.8 0.00 54.9 46.6 0.2 S | 183 1.4 272 -12 0.0 64.4 8.2
1/29/23 - 0400 49.7 47.3 79 41.9 0.00 54.9 46.7 0.3 SSW | 205 1.6 273 -29 0.0 66.2 8.2
1/29/23 - 0300 50.4 49.7 77 43.0 0.00 55.1 46.6 0.6 SW | 215 2.0 272 -21 0.0 67.3 8.2
1/29/23 - 0200 51.0 49.9 76 43.2 0.00 55.2 46.7 1.0 SW | 227 3.8 271 -15 0.0 68.6 8.2
1/29/23 - 0100 50.0 49.4 79 43.6 0.00 55.2 46.7 0.1 SSE | 156 1.7 272 -14 0.0 69.8 8.2
1/29/23 - 0000 49.9 49.1 80 43.5 0.00 55.0 46.6 0.1 SSW | 205 1.2 272 -17 0.0 70.9 8.2
1/28/23 - 2300 50.4 49.6 79 43.8 0.00 55.1 46.7 0.2 SSW | 201 1.8 272 -18 0.0 73.2 8.2
1/28/23 - 2200 50.8 49.6 78 43.3 0.00 56.8 46.6 0.4 SSW | 199 2.1 271 -20 0.0 74.5 8.2
1/28/23 - 2100 51.8 50.7 75 43.5 0.00 56.2 46.6 1.2 SW | 214 4.4 271 -27 2.2 75.9 8.2
1/28/23 - 2000 52.4 51.6 74 43.8 0.00 53.4 46.7 2.4 SW | 229 5.8 270 -16 3.6 77.9 8.2
1/28/23 - 1900 52.2 50.0 74 43.2 0.00 53.1 46.6 1.4 SSW | 207 3.6 270 -39 2.2 82.7 8.3
1/28/23 - 1800 55.4 52.2 67 42.9 0.00 54.2 46.6 2.4 SW | 216 5.3 270 -68 3.2 92.4 8.3
1/28/23 - 1700 60.1 55.4 56 42.4 0.00 55.4 46.6 2.5 S | 181 6.6 268 -21 4.3 97.1 8.3
1/28/23 - 1600 63.8 59.8 47 41.1 0.00 55.6 46.5 2.8 SE | 146 8.1 267 114 4.8 96.6 8.3
1/28/23 - 1500 64.0 62.9 40 38.8 0.00 55.1 46.4 1.5 ENE | 75 4.3 265 232 2.8 92.9 8.3
1/28/23 - 1400 64.2 61.8 43 39.8 0.00 54.3 46.4 2.1 ENE | 76 5.4 266 326 3.9 82.6 8.3
1/28/23 - 1300 63.5 59.9 46 40.6 0.00 53.7 46.3 2.0 E | 87 6.5 266 377 4.3 73.8 8.3
1/28/23 - 1200 61.5 58.5 50 41.2 0.00 53.1 46.2 1.8 ENE | 60 5.8 266 377 3.2 64.2 8.3
1/28/23 - 1100 58.7 54.7 56 41.5 0.00 54.9 46.3 1.6 NE | 50 4.5 267 324 2.5 59.7 8.3
1/28/23 - 1000 54.7 49.5 59 38.6 0.00 54.6 46.3 0.8 NNE | 19 3.9 268 235 1.7 54.8 8.3
1/28/23 - 0900 49.6 41.3 65 34.8 0.00 53.4 46.4 0.5 NNE | 24 3.2 268 121 1.3 52.0 8.3
1/28/23 - 0800 41.3 34.6 83 33.0 0.00 54.6 46.4 0.1 SE | 144 1.7 271 13 0.0 49.9 8.3
1/28/23 - 0700 35.5 34.4 84 30.7 0.00 53.9 46.4 0.2 SSE | 165 1.1 288 -29 0.0 50.0 8.3
1/28/23 - 0600 35.3 34.2 84 30.3 0.00 54.0 46.5 0.2 S | 172 2.3 282 -34 0.0 50.9 8.3
1/28/23 - 0500 36.2 34.9 82 30.5 0.00 54.4 46.5 0.1 S | 188 0.8 278 -45 0.0 53.0 8.3
1/28/23 - 0400 37.2 35.6 80 30.8 0.00 54.6 46.6 0.1 S | 170 1.1 276 -53 0.0 54.5 8.3
1/28/23 - 0300 37.7 36.7 78 31.0 0.00 54.9 46.6 0.1 S | 170 1.2 274 -55 0.0 55.9 8.3
1/28/23 - 0200 39.1 37.6 76 31.5 0.00 55.1 46.7 0.2 SSE | 162 1.3 273 -54 0.0 57.8 8.3
1/28/23 - 0100 40.6 38.5 72 31.6 0.00 55.2 46.7 0.1 SSE | 166 1.2 271 -55 0.0 58.8 8.3
1/28/23 - 0000 41.3 40.1 71 32.0 0.00 55.4 46.7 0.2 S | 170 1.0 271 -55 0.0 60.8 8.3
1/27/23 - 2300 42.9 40.3 69 32.1 0.00 55.4 46.8 0.2 SSE | 165 1.1 270 -60 0.0 63.1 8.3
1/27/23 - 2200 43.9 42.7 65 32.5 0.00 55.5 46.8 0.3 SSE | 166 1.8 269 -61 1.3 67.6 8.3
1/27/23 - 2100 46.4 43.5 60 32.1 0.00 55.5 46.8 0.5 S | 184 2.1 268 -62 0.0 74.7 8.3
1/27/23 - 2000 50.0 46.3 53 32.0 0.00 55.2 46.8 0.3 S | 185 1.5 268 -65 1.7 80.6 8.3
1/27/23 - 1900 54.3 49.9 48 32.6 0.00 55.1 46.8 0.3 S | 186 2.1 267 -68 0.7 89.8 8.3
1/27/23 - 1800 61.4 54.3 36 31.4 0.00 54.7 46.8 1.3 SW | 230 3.3 266 -73 0.0 97.9 8.3
1/27/23 - 1700 67.3 61.2 29 31.6 0.00 54.5 46.8 2.3 SSW | 192 6.2 265 -27 3.9 99.9 8.4
1/27/23 - 1600 72.4 67.1 23 29.5 0.00 54.0 46.7 2.7 S | 178 7.8 263 112 5.9 99.5 8.4
1/27/23 - 1500 73.5 71.1 15 22.7 0.00 53.6 46.6 1.1 SSW | 204 5.7 261 233 3.0 97.0 8.4
1/27/23 - 1400 72.9 70.6 17 24.3 0.00 53.5 46.6 1.5 WSW | 249 4.9 261 324 3.7 85.8 8.4
1/27/23 - 1300 71.6 69.0 17 23.3 0.00 53.1 46.5 0.9 WNW | 282 3.9 262 375 3.8 77.0 8.4
1/27/23 - 1200 69.2 65.3 20 24.4 0.00 53.1 46.5 1.3 WSW | 247 4.8 262 376 4.5 65.9 8.4
1/27/23 - 1100 66.4 61.1 24 25.3 0.00 53.2 46.5 0.9 NE | 38 3.1 263 327 2.3 59.3 8.4
1/27/23 - 1000 61.7 54.7 30 27.0 0.00 55.2 46.5 0.9 ENE | 63 2.7 264 239 1.4 56.1 8.4
1/27/23 - 0900 55.2 40.7 46 28.3 0.00 52.7 46.6 0.2 ENE | 68 1.7 264 128 0.4 52.4 8.4
1/27/23 - 0800 40.7 34.6 65 26.0 0.00 54.4 46.6 0.4 SSE | 166 2.5 268 -29 1.3 49.6 8.4
1/27/23 - 0700 36.4 35.1 63 24.4 0.00 52.8 46.6 0.2 SSE | 168 1.3 269 -56 0.0 51.9 8.4
1/27/23 - 0600 36.7 35.6 63 24.8 0.00 54.4 46.7 0.2 S | 173 1.7 269 -57 0.0 53.2 8.4
1/27/23 - 0500 38.5 36.5 58 24.0 0.00 54.5 46.7 0.4 SSE | 166 2.8 269 -59 1.8 55.3 8.4
1/27/23 - 0400 40.4 38.3 54 23.8 0.00 54.7 46.8 0.3 S | 170 1.5 268 -60 0.0 56.0 8.4
1/27/23 - 0300 42.6 40.1 48 23.1 0.00 54.7 46.8 0.2 SSE | 156 2.1 267 -61 2.0 59.3 8.4
1/27/23 - 0200 44.3 42.2 44 22.8 0.00 55.0 46.9 0.3 SSE | 151 1.7 266 -62 0.0 60.6 8.4
1/27/23 - 0100 49.0 43.2 41 23.0 0.00 55.3 46.9 1.0 SSE | 160 4.0 266 -65 1.6 62.0 8.4
1/27/23 - 0000 52.9 48.9 30 20.1 0.00 55.1 46.9 1.6 S | 169 4.2 265 -70 2.3 65.4 8.4
1/26/23 - 2300 60.3 51.3 26 19.4 0.00 55.3 47.0 1.6 SSE | 151 5.0 264 -76 2.9 70.0 8.4
1/26/23 - 2200 60.5 57.9 18 15.9 0.00 53.6 47.0 2.6 W | 281 8.3 264 -79 7.7 73.5 8.4
1/26/23 - 2100 60.8 57.3 18 15.8 0.00 55.1 47.0 2.5 WSW | 247 10.4 264 -80 7.4 77.8 8.4
1/26/23 - 2000 61.7 60.3 17 15.7 0.00 55.4 47.0 1.8 N | 354 9.3 263 -85 6.5 83.6 8.4
1/26/23 - 1900 62.0 60.9 17 15.9 0.00 54.9 46.9 2.8 N | 3 13.9 263 -87 5.0 93.8 8.5
1/26/23 - 1800 64.1 61.6 17 16.9 0.00 56.0 46.9 3.1 N | 1 11.6 263 -87 3.6 98.3 8.5
1/26/23 - 1700 66.1 63.8 15 16.6 0.00 54.3 46.9 4.5 N | 9 11.4 263 -36 5.0 99.9 8.5
1/26/23 - 1600 67.8 66.0 15 17.4 0.00 54.0 46.8 4.4 N | 3 14.2 262 109 6.4 101.7 8.5
1/26/23 - 1500 68.5 67.4 15 18.1 0.00 53.8 46.7 4.2 N | 7 11.9 262 234 5.0 102.0 8.5
1/26/23 - 1400 68.6 67.4 14 17.5 0.00 53.6 46.7 5.2 N | 10 16.7 261 325 6.2 99.5 8.5
1/26/23 - 1300 68.3 66.1 15 17.5 0.00 53.4 46.6 4.9 NNE | 12 13.8 262 374 4.9 93.0 8.6
1/26/23 - 1200 67.1 65.4 16 18.7 0.00 53.2 46.6 4.9 N | 9 16.4 262 372 6.9 83.5 8.6
1/26/23 - 1100 65.9 62.9 18 20.2 0.00 53.1 46.6 3.8 N | 2 16.4 262 320 7.0 74.2 8.6
1/26/23 - 1000 63.3 60.4 21 21.1 0.00 53.2 46.7 4.6 N | 4 14.6 263 226 6.1 65.1 8.6
1/26/23 - 0900 60.7 57.4 23 21.0 0.00 53.4 46.7 3.0 N | 354 16.0 263 108 8.5 61.1 8.6
1/26/23 - 0800 57.5 56.2 24 20.2 0.00 53.3 46.7 3.0 N | 355 11.3 264 -51 4.7 60.2 8.6
1/26/23 - 0700 56.9 55.9 24 19.6 0.00 53.5 46.8 2.6 N | 356 11.8 264 -80 8.2 60.3 8.6
1/26/23 - 0600 58.1 56.4 23 19.8 0.00 53.5 46.7 4.2 N | 4 14.8 264 -82 5.5 61.3 8.6
1/26/23 - 0500 58.7 57.9 23 20.2 0.00 53.5 46.8 5.8 N | 6 14.7 264 -82 6.3 61.7 8.6
1/26/23 - 0400 58.5 57.5 24 21.4 0.00 53.7 46.8 5.2 N | 9 13.8 264 -80 4.8 62.5 8.6
1/26/23 - 0300 59.7 57.4 24 21.9 0.00 53.6 46.8 3.6 N | 10 12.6 264 -79 4.0 63.1 8.6
1/26/23 - 0200 60.4 59.3 23 21.6 0.00 53.8 46.9 4.0 N | 9 11.0 264 -80 4.1 64.4 8.6
1/26/23 - 0100 60.6 59.5 23 21.8 0.00 53.7 46.8 3.8 N | 11 9.5 264 -79 6.0 65.0 8.6
1/26/23 - 0000 60.6 59.8 23 21.8 0.00 53.8 46.9 3.0 N | 2 8.4 264 -77 4.1 64.9 8.6
1/25/23 - 2300 60.4 58.3 24 22.4 0.00 53.6 46.9 1.7 N | 358 9.8 264 -75 3.8 66.7 8.6
1/25/23 - 2200 59.2 57.9 25 22.7 0.00 53.7 46.9 0.8 NW | 322 5.4 264 -76 5.0 71.0 8.6
1/25/23 - 2100 60.1 58.6 24 22.4 0.00 54.0 46.9 1.1 N | 349 6.9 264 -78 2.9 74.4 8.6
1/25/23 - 2000 60.2 59.6 23 22.2 0.00 55.0 46.9 1.1 NNW | 345 6.4 264 -79 3.8 76.7 8.6
1/25/23 - 1900 62.4 60.0 22 21.8 0.00 52.1 46.8 1.4 N | 359 7.0 264 -81 2.9 81.4 8.7
1/25/23 - 1800 64.4 62.2 19 20.7 0.00 51.7 46.8 2.7 N | 1 10.0 264 -84 2.9 89.4 8.7
1/25/23 - 1700 67.4 64.3 17 20.3 0.00 53.9 46.8 4.3 N | 4 11.8 264 -35 5.3 92.8 8.7
1/25/23 - 1600 69.4 67.2 16 20.2 0.00 52.2 46.7 4.0 N | 4 11.1 263 108 4.4 91.7 8.7
1/25/23 - 1500 70.4 69.0 16 21.2 0.00 51.9 46.6 4.1 N | 6 14.8 262 233 6.4 86.8 8.7
1/25/23 - 1400 71.9 69.6 16 22.6 0.00 51.5 46.6 3.4 N | 3 12.9 262 320 7.1 79.8 8.7
1/25/23 - 1300 72.4 70.3 17 23.6 0.00 51.4 46.5 2.2 NNE | 22 10.3 263 367 5.7 71.1 8.7
1/25/23 - 1200 70.5 68.4 18 24.6 0.00 51.0 46.5 1.7 NE | 51 6.7 263 368 3.3 63.7 8.7
1/25/23 - 1100 69.4 63.2 21 25.0 0.00 51.4 46.4 0.8 NE | 47 3.8 263 320 1.7 58.5 8.7
1/25/23 - 1000 63.5 54.3 31 28.4 0.00 51.7 46.5 0.8 E | 82 4.3 264 236 3.1 53.0 8.7
1/25/23 - 0900 54.3 38.4 51 29.0 0.00 51.8 46.5 0.3 NE | 39 2.5 266 120 0.8 52.7 8.7
1/25/23 - 0800 38.4 33.2 69 25.8 0.00 52.5 46.6 0.2 SSE | 168 1.8 270 -27 1.0 49.3 8.7
1/25/23 - 0700 34.5 33.2 70 25.0 0.00 52.4 46.6 0.2 SSE | 164 2.0 271 -53 0.6 49.5 8.7
1/25/23 - 0600 34.9 33.6 68 24.7 0.00 52.4 46.7 0.3 S | 181 2.1 270 -54 0.6 50.1 8.7
1/25/23 - 0500 35.7 34.7 65 24.7 0.00 52.0 46.7 0.1 S | 186 1.1 270 -55 0.0 51.0 8.7
1/25/23 - 0400 36.7 35.4 64 24.9 0.00 51.7 46.8 0.1 S | 190 1.7 270 -56 0.0 53.0 8.7
1/25/23 - 0300 37.6 36.4 63 25.5 0.00 52.7 46.8 0.4 S | 175 1.8 269 -57 0.1 55.5 8.7
1/25/23 - 0200 38.8 37.3 61 25.9 0.00 53.2 46.9 0.3 S | 176 2.9 269 -58 2.0 56.9 8.7
1/25/23 - 0100 40.6 38.4 59 26.3 0.00 53.2 47.0 0.1 SSE | 166 2.5 269 -58 1.5 59.4 8.7
1/25/23 - 0000 41.4 39.7 59 27.2 0.00 53.4 47.0 0.5 S | 175 2.1 269 -60 0.6 60.5 8.7
1/24/23 - 2300 44.6 41.1 54 27.3 0.00 53.2 47.0 0.8 S | 190 3.9 269 -62 2.1 62.6 8.8
1/24/23 - 2200 46.0 44.0 50 27.2 0.00 52.0 47.0 0.4 SSE | 164 3.1 268 -63 1.6 65.9 8.8
1/24/23 - 2100 48.0 45.9 53 30.6 0.00 53.0 47.0 1.0 SSE | 163 2.9 268 -67 2.0 70.3 8.8
1/24/23 - 2000 52.5 46.8 50 31.3 0.00 51.8 47.1 0.9 S | 180 4.1 268 -69 0.9 75.7 8.8
1/24/23 - 1900 61.2 52.6 37 31.7 0.00 51.3 47.0 1.3 W | 260 4.6 266 -81 3.5 82.1 8.8
1/24/23 - 1800 65.3 61.0 18 19.2 0.00 52.9 47.0 1.0 NW | 305 4.9 264 -86 4.3 89.0 8.8
1/24/23 - 1700 69.5 65.2 14 17.4 0.00 53.1 46.9 0.9 NNW | 338 6.9 263 -41 4.0 91.8 8.8
1/24/23 - 1600 71.6 69.4 12 16.1 0.00 53.5 46.8 1.5 NNW | 344 6.5 262 101 5.5 91.8 8.8
1/24/23 - 1500 72.7 70.3 13 18.6 0.00 53.3 46.7 1.9 N | 349 7.5 261 226 5.5 87.7 8.8
1/24/23 - 1400 72.4 69.4 16 22.3 0.00 52.9 46.7 1.2 NE | 35 4.5 261 315 3.4 80.5 8.8
1/24/23 - 1300 70.9 67.0 18 23.5 0.00 52.2 46.6 1.1 E | 85 5.2 262 368 3.1 70.7 8.8
1/24/23 - 1200 68.0 65.8 18 22.1 0.00 51.9 46.5 1.4 ENE | 59 4.2 263 370 3.2 63.4 8.8
1/24/23 - 1100 66.7 61.3 21 22.7 0.00 50.9 46.5 0.9 E | 79 3.4 263 321 3.3 59.0 8.8
1/24/23 - 1000 61.7 55.8 25 23.2 0.00 51.1 46.6 0.7 SE | 135 3.7 264 229 2.1 54.6 8.8
1/24/23 - 0900 55.8 40.6 37 24.2 0.00 51.1 46.6 1.1 SE | 131 3.4 264 112 1.2 52.2 8.8
1/24/23 - 0800 40.5 35.6 58 24.1 0.00 51.6 46.7 0.5 SSE | 162 4.1 269 -34 1.9 49.2 8.8
1/24/23 - 0700 39.2 35.6 54 22.5 0.00 51.8 46.7 0.5 SSE | 165 2.4 269 -59 2.0 49.5 8.8
1/24/23 - 0600 41.6 38.6 48 21.8 0.00 51.9 46.7 1.1 SSE | 165 4.3 268 -61 2.9 50.8 8.8
1/24/23 - 0500 41.4 39.4 47 21.7 0.00 52.0 46.8 1.1 SSE | 164 3.4 268 -60 1.8 51.5 8.8
1/24/23 - 0400 41.6 38.9 47 22.0 0.00 52.2 46.8 0.6 SSE | 155 2.6 268 -61 1.9 53.3 8.8
1/24/23 - 0300 41.9 39.2 49 22.6 0.00 52.4 46.8 0.6 SSE | 151 2.8 268 -60 0.0 54.5 8.8
1/24/23 - 0200 41.9 39.4 49 22.6 0.00 52.6 46.9 1.3 SSE | 166 3.3 268 -61 0.8 55.9 8.8
1/24/23 - 0100 42.8 39.8 48 22.7 0.00 52.6 47.0 0.9 SSE | 166 3.5 267 -63 1.1 57.9 8.8
1/24/23 - 0000 47.5 42.5 39 21.2 0.00 52.8 47.0 1.3 S | 171 4.0 267 -67 2.1 59.7 8.8
1/23/23 - 2300 50.0 45.9 33 19.8 0.00 52.8 47.0 1.1 SSE | 148 4.6 266 -68 2.5 62.0 8.8
1/23/23 - 2200 49.9 43.4 36 20.6 0.00 52.7 47.0 0.9 SSW | 212 3.6 266 -66 2.7 62.6 8.8
1/23/23 - 2100 50.7 46.4 33 20.0 0.00 52.7 47.0 1.1 S | 183 4.6 266 -69 4.3 65.3 8.8
1/23/23 - 2000 54.5 46.5 28 18.7 0.00 52.7 47.1 1.1 S | 175 4.1 266 -74 2.5 70.7 8.9
1/23/23 - 1900 56.9 53.8 22 17.0 0.00 52.7 47.0 0.4 NNW | 334 3.7 264 -79 2.8 75.3 8.9
1/23/23 - 1800 60.1 56.5 19 16.4 0.00 52.3 47.0 1.8 N | 5 9.7 264 -83 6.1 80.9 8.9
1/23/23 - 1700 62.6 59.6 17 16.0 0.00 52.0 47.0 3.0 NNE | 19 10.3 264 -39 4.8 84.1 8.9
1/23/23 - 1600 64.0 62.1 15 15.2 0.00 51.7 47.0 4.2 NNE | 16 12.4 262 100 4.2 84.0 8.9
1/23/23 - 1500 63.9 63.0 15 15.1 0.00 51.5 46.9 4.2 N | 1 12.0 262 231 8.2 82.4 8.9
1/23/23 - 1400 63.6 61.9 15 15.0 0.00 52.4 46.8 3.8 N | 359 14.6 262 326 7.6 77.7 8.9
1/23/23 - 1300 62.1 60.0 16 14.8 0.00 52.8 46.8 4.6 N | 2 15.1 263 379 5.3 70.9 8.9
1/23/23 - 1200 61.1 58.6 17 15.4 0.00 51.0 46.8 3.4 N | 356 16.4 263 376 6.1 63.4 8.9
1/23/23 - 1100 59.8 56.1 20 16.4 0.00 51.1 46.7 2.4 N | 358 12.2 264 322 6.1 58.5 8.9
1/23/23 - 1000 56.2 51.7 22 15.5 0.00 51.0 46.8 2.0 NNW | 348 10.3 263 229 8.8 55.4 8.9
1/23/23 - 0900 51.7 47.7 24 14.4 0.00 51.4 46.8 2.8 N | 360 10.0 264 102 6.8 52.4 9.0
1/23/23 - 0800 47.7 45.7 26 13.5 0.00 52.5 46.8 3.4 N | 7 10.0 266 -52 5.8 51.1 9.0
1/23/23 - 0700 46.1 44.4 27 13.6 0.00 51.7 46.9 2.7 N | 7 12.5 266 -75 5.0 51.5 9.0
1/23/23 - 0600 45.8 44.5 28 13.8 0.00 51.7 47.0 1.4 N | 357 8.0 266 -76 5.5 52.4 9.0
1/23/23 - 0500 47.1 44.7 26 13.5 0.00 51.8 47.0 1.4 N | 352 6.6 266 -78 6.8 53.2 9.0
1/23/23 - 0400 47.6 46.5 25 13.0 0.00 52.0 47.0 1.9 N | 352 7.4 266 -79 7.8 54.6 9.0
1/23/23 - 0300 48.5 47.2 23 12.2 0.00 52.2 47.1 2.6 N | 358 10.8 266 -81 4.5 55.7 9.0
1/23/23 - 0200 49.1 47.8 23 12.4 0.00 52.3 47.1 2.4 N | 1 8.3 266 -81 5.1 57.2 9.0
1/23/23 - 0100 50.1 48.8 22 12.1 0.00 52.3 47.2 3.8 N | 1 16.8 266 -82 5.6 57.6 9.0
1/23/23 - 0000 50.9 49.4 22 13.1 0.00 52.2 47.2 2.2 N | 355 8.8 266 -79 4.1 58.8 9.0
1/22/23 - 2300 51.0 49.8 26 16.6 0.00 52.3 47.3 1.9 N | 6 8.7 266 -77 6.3 59.6 9.0
1/22/23 - 2200 51.0 48.3 36 23.9 0.00 52.5 47.3 1.7 N | 356 10.4 266 -75 3.9 61.2 9.0
1/22/23 - 2100 49.4 47.6 47 29.3 0.00 52.5 47.3 1.2 ESE | 120 6.1 268 -72 4.0 63.3 9.0
1/22/23 - 2000 50.8 48.8 44 28.9 0.00 52.3 47.3 2.5 S | 184 9.0 267 -74 6.9 65.3 9.0
1/22/23 - 1900 52.2 49.2 41 27.9 0.00 51.9 47.3 2.7 SSE | 156 9.5 267 -76 5.6 68.0 9.0
1/22/23 - 1800 54.9 52.0 33 25.3 0.00 51.8 47.3 1.8 N | 359 8.4 266 -79 5.0 73.0 9.0
1/22/23 - 1700 60.1 54.9 29 25.2 0.00 51.6 47.3 2.0 NNW | 348 9.4 266 -31 8.0 76.1 9.0
1/22/23 - 1600 62.9 59.9 26 26.9 0.00 51.1 47.3 3.2 N | 4 10.7 264 103 4.2 76.1 9.0
1/22/23 - 1500 65.2 62.4 26 27.8 0.00 50.9 47.1 2.8 N | 357 11.4 264 230 4.1 72.1 9.0
1/22/23 - 1400 66.0 63.8 23 26.7 0.00 50.7 47.0 2.1 NE | 41 9.1 264 307 4.1 65.9 9.0
1/22/23 - 1300 65.1 59.9 23 23.6 0.00 50.6 46.9 1.9 W | 273 7.2 264 370 4.9 61.1 9.0
1/22/23 - 1200 61.6 56.2 25 23.0 0.00 50.7 46.9 1.2 WNW | 290 4.8 264 373 3.4 57.1 9.1
1/22/23 - 1100 57.0 46.0 37 26.2 0.00 50.8 47.0 0.8 SE | 128 4.3 266 308 3.0 53.3 9.1
1/22/23 - 1000 46.2 41.6 58 30.0 0.00 50.7 47.0 0.2 NE | 50 2.7 268 77 0.2 51.0 9.1
1/22/23 - 0900 41.9 34.8 68 28.9 0.00 50.9 47.0 0.3 SE | 126 1.5 270 53 0.0 50.7 9.1
1/22/23 - 0800 34.8 32.2 76 26.3 0.00 50.6 47.0 0.2 SSE | 163 1.3 271 -18 0.0 49.4 9.1
1/22/23 - 0700 32.6 31.7 76 25.5 0.00 50.6 47.0 0.2 S | 177 1.7 273 -44 0.0 48.5 9.1
1/22/23 - 0600 32.2 31.1 76 25.1 0.00 50.6 47.1 0.1 S | 180 1.0 273 -49 0.0 48.9 9.1
1/22/23 - 0500 33.0 31.8 75 25.3 0.00 52.0 47.2 0.4 S | 174 2.1 273 -55 0.0 49.4 9.1
1/22/23 - 0400 33.7 32.4 72 25.0 0.00 52.0 47.3 0.2 SSE | 156 2.1 272 -57 0.0 51.4 9.1
1/22/23 - 0300 34.6 33.2 72 25.9 0.00 52.3 47.4 0.4 S | 170 2.5 272 -58 2.0 52.6 9.1
1/22/23 - 0200 35.3 34.1 70 25.9 0.00 52.3 47.4 0.1 S | 175 1.5 271 -59 0.0 54.0 9.1
1/22/23 - 0100 36.8 35.1 69 26.7 0.00 52.5 47.4 0.4 SSE | 164 2.2 271 -62 0.0 56.0 9.1
1/22/23 - 0000 39.3 36.6 63 26.5 0.00 52.6 47.5 0.2 SSE | 165 1.9 271 -63 0.0 57.8 9.1
1/21/23 - 2300 41.4 38.5 60 27.0 0.00 52.7 47.5 0.3 SSE | 161 2.1 270 -65 0.0 60.8 9.1
1/21/23 - 2200 42.4 40.8 58 27.8 0.00 52.7 47.6 0.8 SSE | 160 4.0 269 -66 0.9 62.6 9.1
1/21/23 - 2100 45.0 41.6 56 28.6 0.00 52.7 47.6 0.7 SSE | 154 3.2 269 -67 1.3 65.2 9.1
1/21/23 - 2000 51.6 44.5 46 27.0 0.00 52.6 47.7 0.7 S | 181 2.6 268 -69 1.6 69.7 9.1
1/21/23 - 1900 52.6 47.2 49 30.4 0.00 52.4 47.7 1.2 S | 183 3.6 267 -73 2.7 75.3 9.1
1/21/23 - 1800 59.2 51.0 40 31.1 0.00 52.0 47.7 0.4 NNE | 20 3.2 268 -80 0.0 81.8 9.1
1/21/23 - 1700 63.9 59.1 22 22.4 0.00 51.9 47.7 1.4 N | 359 7.5 265 -44 4.0 85.0 9.1
1/21/23 - 1600 66.8 63.7 19 21.3 0.00 51.4 47.6 1.6 NNW | 347 7.5 264 94 5.4 84.4 9.1
1/21/23 - 1500 66.3 64.4 17 19.1 0.00 50.8 47.5 2.7 N | 355 9.0 263 224 4.4 81.7 9.1
1/21/23 - 1400 67.8 65.9 16 19.3 0.00 50.0 47.5 1.7 N | 350 6.2 262 312 6.5 75.4 9.1
1/21/23 - 1300 67.8 64.3 17 20.0 0.00 50.2 47.3 1.6 N | 355 7.7 263 364 6.6 67.1 9.1
1/21/23 - 1200 64.3 61.4 20 21.4 0.00 49.1 47.3 2.3 NNE | 20 6.8 264 366 4.8 61.6 9.2
1/21/23 - 1100 62.0 59.2 24 23.4 0.00 49.0 47.3 1.7 NE | 40 5.4 264 316 2.4 57.4 9.2
1/21/23 - 1000 59.5 55.5 28 24.4 0.00 49.4 47.4 1.4 ENE | 74 3.6 265 225 3.0 53.0 9.2
1/21/23 - 0900 55.6 41.1 33 22.4 0.00 50.1 47.4 2.0 ESE | 110 6.5 266 100 3.3 51.7 9.2
1/21/23 - 0800 40.9 36.4 59 24.6 0.00 50.2 47.5 0.8 SE | 146 3.6 271 -44 2.2 50.4 9.2
1/21/23 - 0700 39.9 36.7 57 24.0 0.00 53.7 47.5 1.2 SSE | 152 3.8 271 -62 0.0 50.4 9.2
1/21/23 - 0600 40.3 37.5 55 23.9 0.00 53.3 47.6 1.3 SSE | 154 4.3 271 -64 3.1 50.8 9.2
1/21/23 - 0500 41.1 38.2 51 23.3 0.00 53.4 47.6 1.1 SSE | 168 3.3 271 -63 2.7 50.8 9.2
1/21/23 - 0400 42.5 39.4 51 23.6 0.00 52.2 47.7 1.3 S | 177 4.0 271 -64 3.1 52.7 9.2
1/21/23 - 0300 46.1 40.7 42 22.6 0.00 52.1 47.8 3.3 SSW | 208 7.0 270 -68 5.3 55.2 9.2
1/21/23 - 0200 45.9 35.6 62 27.2 0.00 52.3 47.8 2.3 SSW | 203 7.6 270 -40 4.8 55.1 9.2
1/21/23 - 0100 37.2 35.4 89 33.6 0.00 52.4 47.8 0.2 SSE | 161 1.3 371 -22 0.0 55.8 9.2
1/21/23 - 0000 38.9 36.9 89 35.0 0.00 52.5 47.8 0.1 SSE | 162 1.4 366 -25 0.0 58.4 9.2
1/20/23 - 2300 40.3 38.7 88 36.4 0.00 52.6 47.9 0.1 S | 185 1.4 342 -30 0.0 59.8 9.2
1/20/23 - 2200 41.5 40.2 85 36.6 0.00 52.9 47.9 0.2 S | 174 1.4 312 -49 0.0 61.5 9.2
1/20/23 - 2100 45.2 41.4 78 36.5 0.00 50.6 48.1 0.5 SSE | 161 2.7 282 -65 0.0 64.8 9.2
1/20/23 - 2000 48.5 45.0 73 38.6 0.00 52.7 48.1 1.2 SSE | 157 4.3 274 -72 3.2 68.4 9.2
1/20/23 - 1900 51.5 46.1 67 37.9 0.00 53.8 48.1 0.4 SE | 139 2.5 272 -74 1.9 72.7 9.2
1/20/23 - 1800 56.5 51.4 34 25.3 0.00 54.3 48.1 0.7 N | 4 7.5 268 -80 3.5 77.0 9.2
1/20/23 - 1700 60.2 56.3 22 19.6 0.00 53.3 48.1 2.3 N | 359 8.2 266 -42 4.0 80.2 9.2
1/20/23 - 1600 63.6 60.2 20 20.3 0.00 52.0 48.0 1.8 NNW | 348 9.3 264 93 5.3 80.1 9.2
1/20/23 - 1500 64.6 62.9 18 19.8 0.00 51.4 47.9 1.5 NW | 324 6.8 263 221 7.3 78.0 9.2
1/20/23 - 1400 64.2 60.8 19 19.5 0.00 51.2 47.8 2.4 W | 267 7.1 263 313 5.5 73.1 9.2
1/20/23 - 1300 65.2 61.0 19 19.8 0.00 51.0 47.8 1.3 NE | 41 6.0 263 364 4.9 67.5 9.2
1/20/23 - 1200 61.6 58.7 20 19.5 0.01 50.8 47.7 1.6 NE | 45 5.9 264 366 3.2 63.2 9.2
1/20/23 - 1100 59.3 54.9 23 19.2 0.00 51.0 47.8 2.8 NNE | 14 11.2 265 319 5.3 58.1 9.2
1/20/23 - 1000 55.1 51.3 24 17.5 0.00 51.0 47.8 3.7 NNE | 12 9.8 266 227 4.9 54.2 9.2
1/20/23 - 0900 51.5 47.0 28 17.1 0.00 51.4 47.9 2.6 NNE | 12 9.4 266 95 3.4 51.8 9.2
1/20/23 - 0800 47.2 44.5 33 18.0 0.00 51.6 47.9 1.9 NNE | 18 8.2 269 -56 3.4 51.8 9.2
1/20/23 - 0700 45.2 44.2 35 18.4 0.00 51.7 48.0 1.2 N | 353 6.4 269 -74 3.3 52.8 9.2
1/20/23 - 0600 45.3 44.6 41 22.5 0.00 51.8 48.1 1.3 N | 351 7.3 269 -75 2.9 53.2 9.2
1/20/23 - 0500 45.2 44.4 47 25.9 0.00 52.0 48.2 1.3 N | 359 5.9 270 -72 3.2 53.2 9.3
1/20/23 - 0400 44.7 43.7 57 29.8 0.00 52.4 48.2 0.6 NNW | 337 4.7 271 -70 3.1 53.4 9.3
1/20/23 - 0300 45.0 44.2 60 31.5 0.00 52.2 48.3 0.8 NNW | 334 4.8 271 -71 4.6 56.0 9.3
1/20/23 - 0200 46.2 44.7 57 31.4 0.00 52.5 48.3 1.0 NNW | 332 6.2 271 -70 4.7 56.7 9.3
1/20/23 - 0100 46.3 41.6 60 31.4 0.00 52.5 48.3 1.0 NW | 322 6.0 271 -67 4.2 56.4 9.3
1/20/23 - 0000 46.8 43.6 57 31.4 0.00 52.8 48.4 0.7 NW | 310 5.8 272 -68 2.3 57.2 9.3
1/19/23 - 2300 45.2 43.0 62 32.2 0.00 52.9 48.4 0.4 N | 4 3.8 273 -65 2.0 59.0 9.3
1/19/23 - 2200 47.7 44.7 58 32.7 0.00 52.8 48.5 1.0 N | 4 5.7 273 -51 2.6 62.2 9.3
1/19/23 - 2100 48.1 46.8 56 32.5 0.00 52.7 48.5 1.4 N | 3 6.5 272 -9 3.9 63.5 9.3
1/19/23 - 2000 48.2 46.4 65 36.0 0.00 51.3 48.5 1.7 NNE | 18 7.8 274 -9 4.3 64.7 9.3
1/19/23 - 1900 50.2 48.2 88 46.0 0.00 52.5 48.5 0.7 NE | 36 3.1 353 -5 2.8 66.0 9.3
1/19/23 - 1800 51.4 49.9 86 46.4 0.05 52.4 48.4 0.4 NNW | 327 3.5 503 -4 2.2 67.9 9.3
1/19/23 - 1700 53.9 51.3 74 44.7 0.02 52.2 48.3 1.3 ESE | 112 4.3 548 -4 2.7 69.1 9.2
1/19/23 - 1600 55.6 53.1 68 43.8 0.00 51.8 48.2 2.4 S | 175 5.1 271 91 3.5 68.7 9.2
1/19/23 - 1500 54.8 53.1 67 43.3 0.00 51.6 48.2 2.7 S | 186 6.9 272 62 4.6 66.2 9.2
1/19/23 - 1400 55.5 54.2 62 41.9 0.00 51.6 48.2 2.6 SSW | 198 6.7 270 87 5.3 64.7 9.2
1/19/23 - 1300 59.2 55.1 49 38.3 0.00 51.2 48.1 2.2 ESE | 110 8.5 269 217 5.3 63.1 9.2
1/19/23 - 1200 59.4 55.6 47 37.2 0.00 50.9 48.0 1.2 NNE | 19 4.8 268 336 3.8 60.6 9.2
1/19/23 - 1100 56.2 53.6 50 36.6 0.00 51.1 48.0 0.8 NNE | 18 3.7 268 309 2.2 56.4 9.2
1/19/23 - 1000 53.6 46.4 62 37.3 0.00 50.9 48.1 0.6 NE | 55 2.4 268 245 1.5 53.4 9.2
1/19/23 - 0900 46.4 36.5 90 38.2 0.00 49.7 48.1 0.2 NNE | 29 1.8 286 142 1.1 51.0 9.2
1/19/23 - 0800 36.5 33.4 93 32.6 0.00 50.3 48.1 0.3 SSE | 163 2.1 376 3 0.0 50.1 9.2
1/19/23 - 0700 34.3 33.0 93 31.7 0.00 53.8 48.2 0.1 SE | 144 1.4 380 -15 0.0 50.4 9.2
1/19/23 - 0600 34.9 34.0 92 32.3 0.00 53.0 48.3 0.1 SSE | 164 1.2 382 -17 0.0 50.0 9.2
1/19/23 - 0500 35.4 34.0 92 32.4 0.00 53.0 48.3 0.3 SSE | 158 1.4 384 -18 0.0 50.8 9.2
1/19/23 - 0400 35.6 34.9 92 33.0 0.00 52.7 48.4 0.2 SSE | 159 1.2 393 -19 0.0 53.4 9.2
1/19/23 - 0300 36.2 35.1 91 33.2 0.00 52.9 48.4 0.3 S | 180 1.7 372 -20 0.0 54.6 9.2
1/19/23 - 0200 37.7 36.1 90 34.1 0.00 53.1 48.5 0.1 SSE | 155 1.6 373 -22 0.0 56.4 9.2
1/19/23 - 0100 38.8 37.3 89 35.3 0.00 53.1 48.6 0.1 SSE | 155 0.9 358 -26 0.0 57.0 9.2
1/19/23 - 0000 39.6 38.4 88 35.6 0.00 53.2 48.7 0.3 SSE | 156 1.5 338 -35 0.0 58.7 9.2
1/18/23 - 2300 40.9 39.2 85 35.9 0.00 53.3 48.8 0.3 S | 178 1.6 314 -49 0.0 59.1 9.2
1/18/23 - 2200 43.6 40.7 83 37.2 0.00 53.3 48.8 0.2 S | 177 2.5 295 -58 0.0 61.4 9.2
1/18/23 - 2100 47.5 43.5 74 38.3 0.00 53.4 48.8 1.3 SSW | 198 4.7 279 -64 3.1 63.4 9.2
1/18/23 - 2000 47.6 46.3 74 39.4 0.00 53.3 48.9 1.3 SSW | 211 3.4 273 -64 1.7 65.7 9.2
1/18/23 - 1900 50.8 47.0 70 39.4 0.00 53.1 48.9 1.0 SSW | 205 2.5 274 -65 0.0 67.3 9.2
1/18/23 - 1800 55.3 50.6 59 38.7 0.00 52.7 48.9 1.5 WSW | 252 3.1 270 -60 3.6 70.8 9.2
1/18/23 - 1700 59.8 55.1 48 37.8 0.00 52.4 48.9 1.4 SW | 230 5.3 269 -23 4.9 72.7 9.3
1/18/23 - 1600 61.3 59.1 36 32.8 0.00 52.2 48.8 0.8 SW | 217 3.3 267 51 2.2 73.5 9.3
1/18/23 - 1500 62.0 59.5 34 32.0 0.00 51.8 48.8 1.1 W | 264 4.6 266 164 3.3 72.6 9.3
1/18/23 - 1400 62.9 60.2 35 33.8 0.00 51.7 48.7 0.9 WNW | 303 5.1 266 252 3.4 69.2 9.3
1/18/23 - 1300 62.2 57.3 40 35.9 0.00 51.5 48.7 1.0 NNW | 332 5.0 266 346 3.9 65.3 9.3
1/18/23 - 1200 59.1 56.3 45 36.4 0.00 51.2 48.6 1.5 NNW | 328 4.4 268 351 3.0 61.8 9.3
1/18/23 - 1100 58.0 53.2 46 34.5 0.00 51.4 48.6 1.0 NW | 317 3.4 268 308 3.4 57.2 9.3
1/18/23 - 1000 53.8 46.4 50 33.7 0.00 51.7 48.6 0.4 ENE | 68 2.6 268 222 0.9 53.1 9.3
1/18/23 - 0900 46.5 34.8 82 35.0 0.00 52.9 48.7 0.1 NNE | 19 1.9 281 149 0.0 52.3 9.3
1/18/23 - 0800 35.0 32.1 91 30.8 0.00 54.5 48.8 0.0 SSE | 165 0.7 357 6 0.0 50.5 9.3
1/18/23 - 0700 32.9 32.0 90 30.0 0.00 53.6 48.9 0.1 SSE | 160 1.2 383 -22 0.0 49.2 9.3
1/18/23 - 0600 33.4 32.0 89 30.0 0.00 52.4 48.9 0.1 SSE | 154 1.2 366 -28 0.0 49.1 9.3
1/18/23 - 0500 34.0 32.9 88 30.0 0.00 52.9 49.0 0.3 S | 171 2.0 341 -37 0.0 51.9 9.3
1/18/23 - 0400 35.0 33.7 85 30.4 0.00 53.0 49.2 0.3 SSE | 162 2.0 312 -49 0.0 52.3 9.3
1/18/23 - 0300 36.4 34.6 82 30.4 0.00 53.2 49.2 0.4 S | 183 2.0 290 -59 0.0 53.8 9.3
1/18/23 - 0200 38.0 36.0 79 31.1 0.00 53.4 49.4 0.6 SSE | 152 2.7 277 -63 1.7 55.0 9.3
1/18/23 - 0100 41.5 37.3 72 31.0 0.00 53.6 49.5 0.7 S | 177 3.1 275 -64 1.1 56.8 9.3
1/18/23 - 0000 45.6 40.9 62 30.4 0.00 53.7 49.6 0.8 S | 170 3.2 272 -66 2.2 57.9 9.3
1/17/23 - 2300 44.7 42.3 61 30.6 0.00 53.7 49.7 0.4 S | 172 2.4 271 -66 1.7 59.2 9.3
1/17/23 - 2200 45.7 41.7 59 30.5 0.00 53.9 49.8 0.7 SE | 136 4.0 271 -67 2.2 59.7 9.3
1/17/23 - 2100 43.3 41.6 65 31.7 0.00 51.8 49.9 0.9 SSE | 152 3.4 271 -68 1.5 61.6 9.3
1/17/23 - 2000 47.2 42.8 56 30.6 0.00 52.5 50.0 0.9 S | 169 3.9 271 -70 2.8 65.8 9.3
1/17/23 - 1900 50.9 46.5 48 30.0 0.00 54.4 50.0 1.2 NE | 42 7.3 270 -75 2.8 69.1 9.3
1/17/23 - 1800 52.8 50.7 44 30.2 0.00 55.6 50.0 1.6 N | 359 7.7 268 -77 4.7 72.3 9.3
1/17/23 - 1700 56.0 52.7 41 31.1 0.00 53.2 50.0 2.1 N | 2 9.8 268 -59 3.4 76.4 9.3
1/17/23 - 1600 60.0 55.9 36 32.0 0.00 52.9 50.0 1.4 NNW | 333 8.1 266 89 3.9 76.1 9.3
1/17/23 - 1500 60.7 58.3 35 32.0 0.00 52.8 50.0 1.2 NNW | 346 5.9 266 199 3.9 73.4 9.3
1/17/23 - 1400 60.7 58.0 35 31.4 0.00 52.4 50.0 1.9 SW | 229 5.9 266 309 4.6 69.6 9.3
1/17/23 - 1300 60.7 56.0 37 31.8 0.00 52.2 50.0 2.2 SW | 227 6.6 267 358 4.8 66.8 9.3
1/17/23 - 1200 57.7 54.7 41 32.6 0.00 52.1 50.0 3.0 WSW | 243 8.6 268 364 6.2 63.2 9.3
1/17/23 - 1100 58.0 54.0 42 33.1 0.00 52.6 50.0 1.6 SW | 230 5.9 268 314 4.7 59.2 9.8
1/17/23 - 1000 55.6 49.2 53 35.9 0.00 52.6 50.1 0.6 NNE | 13 3.0 269 226 2.1 55.4 9.8
1/17/23 - 0900 49.3 37.7 84 38.9 0.00 52.8 50.2 0.8 SW | 222 3.5 271 144 1.8 52.7 9.8
1/17/23 - 0800 37.8 34.6 93 33.8 0.00 52.9 50.4 0.5 SSE | 150 1.9 385 -4 1.5 50.4 9.8
1/17/23 - 0700 36.8 34.6 91 33.5 0.00 53.1 50.7 0.3 S | 178 1.9 396 -21 0.0 52.1 9.8
1/17/23 - 0600 40.9 35.9 88 34.0 0.00 52.8 50.9 0.9 SSE | 152 3.2 396 -23 2.3 52.6 9.8
1/17/23 - 0500 40.8 37.5 90 36.2 0.00 52.9 51.0 1.8 SW | 227 5.4 376 -23 2.7 54.9 9.8
1/17/23 - 0400 40.2 36.9 91 35.6 0.00 53.8 51.2 0.5 SW | 218 3.4 387 -26 1.9 55.1 9.8
1/17/23 - 0300 39.6 37.9 91 36.1 0.00 53.7 51.4 0.8 SW | 214 3.5 376 -30 2.3 55.4 9.8
1/17/23 - 0200 40.9 38.3 88 36.0 0.00 54.2 51.7 0.9 S | 191 3.4 344 -45 2.1 56.5 9.9
1/17/23 - 0100 42.6 40.0 84 36.9 0.00 54.3 51.8 1.1 SSW | 203 3.1 300 -62 1.3 57.7 9.9
1/17/23 - 0000 43.8 41.2 83 38.0 0.00 54.5 52.2 1.5 SSW | 208 4.6 280 -63 1.9 59.9 9.9
1/16/23 - 2300 46.2 41.7 78 38.4 0.00 54.7 52.3 1.2 SSW | 200 3.2 278 -61 1.7 62.5 9.9
1/16/23 - 2200 47.3 46.1 74 39.1 0.00 54.7 52.3 1.0 SW | 234 5.2 274 -40 4.0 63.4 9.9
1/16/23 - 2100 47.8 46.1 69 37.4 0.00 54.7 52.3 2.6 WSW | 250 7.8 273 -68 6.0 63.8 9.9
1/16/23 - 2000 49.0 47.4 72 39.6 0.00 54.8 52.4 4.1 WSW | 242 8.9 273 -71 6.3 65.4 9.9
1/16/23 - 1900 49.5 48.7 71 40.2 0.00 54.9 52.7 5.2 WSW | 237 12.3 272 -72 9.1 70.0 9.9
1/16/23 - 1800 51.3 49.3 70 40.6 0.00 54.7 53.0 5.0 WSW | 238 12.5 272 -72 7.8 74.0 9.9
1/16/23 - 1700 55.0 51.1 64 41.3 0.00 54.5 53.2 6.0 SW | 236 14.3 272 -5 10.1 78.8 9.9
1/16/23 - 1600 55.2 53.5 64 42.1 0.00 54.4 53.4 6.4 SW | 232 11.5 270 75 8.4 78.6 9.9
1/16/23 - 1500 57.0 54.2 61 42.3 0.00 54.3 53.6 6.4 WSW | 238 13.6 270 160 9.1 81.4 10.0
1/16/23 - 1400 57.6 54.7 62 43.2 0.00 54.0 53.8 6.1 SW | 225 12.5 270 324 8.5 81.0 10.0
1/16/23 - 1300 55.8 54.1 65 43.2 0.00 53.8 54.1 4.9 WSW | 248 11.3 272 192 8.2 74.9 10.0
1/16/23 - 1200 57.0 54.2 64 43.5 0.00 53.8 54.4 6.3 WSW | 239 12.9 272 368 8.4 72.5 10.0
1/16/23 - 1100 55.3 53.0 69 44.1 0.00 53.7 54.5 5.6 WSW | 237 13.2 272 220 8.9 66.9 10.0
1/16/23 - 1000 54.1 51.6 81 46.5 0.00 53.8 54.6 2.9 WSW | 238 8.4 273 108 5.0 63.9 10.0
1/16/23 - 0900 52.0 50.4 91 48.7 0.00 53.9 54.7 3.4 WSW | 239 8.5 324 68 5.6 63.0 10.0
1/16/23 - 0800 50.6 49.6 94 48.4 0.01 53.8 54.8 1.2 WSW | 256 6.5 432 17 4.6 63.4 10.0
1/16/23 - 0700 50.0 49.4 93 47.8 0.01 53.8 55.0 0.3 WSW | 252 2.5 451 -1 0.0 62.9 10.0
1/16/23 - 0600 49.8 49.2 93 47.6 0.04 54.0 55.0 0.3 W | 266 3.1 503 -1 0.0 63.5 10.0
1/16/23 - 0500 49.6 48.9 93 47.2 0.00 56.1 55.0 0.2 NNW | 331 2.6 376 -1 1.5 63.4 10.0
1/16/23 - 0400 49.2 48.3 92 46.7 0.00 54.9 55.3 0.9 ENE | 78 5.4 416 -2 2.9 62.5 10.0
1/16/23 - 0300 48.6 47.8 93 46.2 0.04 54.1 55.5 1.1 ENE | 73 4.9 457 -2 2.5 62.4